sensor_id;sensor_type;location;lat;lon;timestamp;P1;durP1;ratioP1;P2;durP2;ratioP2
36833;SDS011;48003;52.084;5.224;2022-12-11T00:01:31;102.1;;;38.5;;
36833;SDS011;48003;52.084;5.224;2022-12-11T00:04:44;96.7;;;38.31;;
36833;SDS011;48003;52.084;5.224;2022-12-11T00:06:21;99.8;;;37.5;;
36833;SDS011;48003;52.084;5.224;2022-12-11T00:07:58;104.2;;;39.21;;
36833;SDS011;48003;52.084;5.224;2022-12-11T00:09:35;108.8;;;39.6;;
36833;SDS011;48003;52.084;5.224;2022-12-11T00:12:49;106.2;;;39.21;;
36833;SDS011;48003;52.084;5.224;2022-12-11T00:14:26;100.9;;;39.4;;
36833;SDS011;48003;52.084;5.224;2022-12-11T00:16:02;99.1;;;38.81;;
36833;SDS011;48003;52.084;5.224;2022-12-11T00:19:15;104.3;;;39.81;;
36833;SDS011;48003;52.084;5.224;2022-12-11T00:20:52;99.5;;;39.21;;
36833;SDS011;48003;52.084;5.224;2022-12-11T00:22:29;94.3;;;38.0;;
36833;SDS011;48003;52.084;5.224;2022-12-11T00:25:43;96.9;;;38.81;;
36833;SDS011;48003;52.084;5.224;2022-12-11T00:27:23;100.7;;;38.71;;
36833;SDS011;48003;52.084;5.224;2022-12-11T00:28:59;99.4;;;38.71;;
36833;SDS011;48003;52.084;5.224;2022-12-11T00:30:37;99.4;;;38.71;;
36833;SDS011;48003;52.084;5.224;2022-12-11T00:33:51;95.1;;;38.21;;
36833;SDS011;48003;52.084;5.224;2022-12-11T00:35:27;97.1;;;39.1;;
36833;SDS011;48003;52.084;5.224;2022-12-11T00:37:03;90.3;;;38.21;;
36833;SDS011;48003;52.084;5.224;2022-12-11T00:40:17;98.3;;;38.9;;
36833;SDS011;48003;52.084;5.224;2022-12-11T00:41:53;95.2;;;39.21;;
36833;SDS011;48003;52.084;5.224;2022-12-11T00:43:29;99.6;;;40.21;;
36833;SDS011;48003;52.084;5.224;2022-12-11T00:45:05;96.8;;;39.9;;
36833;SDS011;48003;52.084;5.224;2022-12-11T00:48:18;99.4;;;40.5;;
36833;SDS011;48003;52.084;5.224;2022-12-11T00:49:55;100.5;;;39.81;;
36833;SDS011;48003;52.084;5.224;2022-12-11T00:51:31;101.7;;;39.81;;
36833;SDS011;48003;52.084;5.224;2022-12-11T00:54:43;107.3;;;42.0;;
36833;SDS011;48003;52.084;5.224;2022-12-11T00:56:21;101.6;;;40.21;;
36833;SDS011;48003;52.084;5.224;2022-12-11T00:57:58;106.5;;;42.4;;
36833;SDS011;48003;52.084;5.224;2022-12-11T01:02:51;113.7;;;42.9;;
36833;SDS011;48003;52.084;5.224;2022-12-11T01:06:04;110.3;;;43.2;;
36833;SDS011;48003;52.084;5.224;2022-12-11T01:10:35;116.3;;;44.3;;
36833;SDS011;48003;52.084;5.224;2022-12-11T01:12:11;114.0;;;45.0;;
36833;SDS011;48003;52.084;5.224;2022-12-11T01:13:47;112.7;;;44.2;;
36833;SDS011;48003;52.084;5.224;2022-12-11T01:15:24;113.9;;;44.8;;
36833;SDS011;48003;52.084;5.224;2022-12-11T01:17:02;107.9;;;43.4;;
36833;SDS011;48003;52.084;5.224;2022-12-11T01:18:39;113.1;;;42.3;;
36833;SDS011;48003;52.084;5.224;2022-12-11T01:21:55;121.4;;;45.5;;
36833;SDS011;48003;52.084;5.224;2022-12-11T01:23:31;119.9;;;45.7;;
36833;SDS011;48003;52.084;5.224;2022-12-11T01:25:08;116.7;;;44.9;;
36833;SDS011;48003;52.084;5.224;2022-12-11T01:28:22;108.9;;;43.0;;
36833;SDS011;48003;52.084;5.224;2022-12-11T01:29:58;111.9;;;43.8;;
36833;SDS011;48003;52.084;5.224;2022-12-11T01:31:34;106.9;;;44.2;;
36833;SDS011;48003;52.084;5.224;2022-12-11T01:33:10;118.6;;;44.9;;
36833;SDS011;48003;52.084;5.224;2022-12-11T01:36:25;124.9;;;46.2;;
36833;SDS011;48003;52.084;5.224;2022-12-11T01:38:01;109.0;;;43.9;;
36833;SDS011;48003;52.084;5.224;2022-12-11T01:39:38;112.4;;;45.0;;
36833;SDS011;48003;52.084;5.224;2022-12-11T01:42:52;115.9;;;44.6;;
36833;SDS011;48003;52.084;5.224;2022-12-11T01:45:12;111.3;;;44.4;;
36833;SDS011;48003;52.084;5.224;2022-12-11T01:46:59;113.0;;;45.4;;
36833;SDS011;48003;52.084;5.224;2022-12-11T01:48:36;110.7;;;44.0;;
36833;SDS011;48003;52.084;5.224;2022-12-11T01:50:13;111.0;;;44.2;;
36833;SDS011;48003;52.084;5.224;2022-12-11T01:53:38;101.8;;;43.0;;
36833;SDS011;48003;52.084;5.224;2022-12-11T01:55:21;104.6;;;44.4;;
36833;SDS011;48003;52.084;5.224;2022-12-11T01:57:00;109.2;;;43.4;;
36833;SDS011;48003;52.084;5.224;2022-12-11T01:58:41;107.1;;;43.7;;
36833;SDS011;48003;52.084;5.224;2022-12-11T02:00:22;109.8;;;44.7;;
36833;SDS011;48003;52.084;5.224;2022-12-11T02:03:41;105.6;;;43.5;;
36833;SDS011;48003;52.084;5.224;2022-12-11T02:05:18;103.5;;;42.6;;
36833;SDS011;48003;52.084;5.224;2022-12-11T02:06:54;95.3;;;41.1;;
36833;SDS011;48003;52.084;5.224;2022-12-11T02:10:08;98.9;;;42.9;;
36833;SDS011;48003;52.084;5.224;2022-12-11T02:11:48;89.7;;;40.21;;
36833;SDS011;48003;52.084;5.224;2022-12-11T02:13:37;88.0;;;40.31;;
36833;SDS011;48003;52.084;5.224;2022-12-11T02:15:26;93.3;;;39.1;;
36833;SDS011;48003;52.084;5.224;2022-12-11T02:17:09;100.2;;;43.3;;
36833;SDS011;48003;52.084;5.224;2022-12-11T02:20:37;96.4;;;41.4;;
36833;SDS011;48003;52.084;5.224;2022-12-11T02:22:19;101.9;;;43.8;;
36833;SDS011;48003;52.084;5.224;2022-12-11T02:24:22;93.0;;;42.4;;
36833;SDS011;48003;52.084;5.224;2022-12-11T02:26:30;93.6;;;41.1;;
36833;SDS011;48003;52.084;5.224;2022-12-11T02:28:21;84.9;;;39.4;;
36833;SDS011;48003;52.084;5.224;2022-12-11T02:30:05;81.11;;;40.31;;
36833;SDS011;48003;52.084;5.224;2022-12-11T02:31:44;79.2;;;39.5;;
36833;SDS011;48003;52.084;5.224;2022-12-11T02:35:11;77.2;;;39.0;;
36833;SDS011;48003;52.084;5.224;2022-12-11T02:36:55;87.4;;;41.1;;
36833;SDS011;48003;52.084;5.224;2022-12-11T02:38:38;77.3;;;40.1;;
36833;SDS011;48003;52.084;5.224;2022-12-11T02:40:20;80.2;;;39.5;;
36833;SDS011;48003;52.084;5.224;2022-12-11T02:43:40;80.2;;;39.5;;
36833;SDS011;48003;52.084;5.224;2022-12-11T02:45:18;82.8;;;40.4;;
36833;SDS011;48003;52.084;5.224;2022-12-11T02:46:57;81.41;;;40.4;;
36833;SDS011;48003;52.084;5.224;2022-12-11T02:48:35;81.3;;;40.21;;
36833;SDS011;48003;52.084;5.224;2022-12-11T02:51:56;84.0;;;39.31;;
36833;SDS011;48003;52.084;5.224;2022-12-11T02:53:37;85.8;;;40.0;;
36833;SDS011;48003;52.084;5.224;2022-12-11T02:55:17;86.1;;;41.0;;
36833;SDS011;48003;52.084;5.224;2022-12-11T02:56:56;84.0;;;40.71;;
36833;SDS011;48003;52.084;5.224;2022-12-11T03:00:21;87.1;;;40.9;;
36833;SDS011;48003;52.084;5.224;2022-12-11T03:01:59;75.61;;;38.6;;
36833;SDS011;48003;52.084;5.224;2022-12-11T03:03:36;71.7;;;37.71;;
36833;SDS011;48003;52.084;5.224;2022-12-11T03:05:12;70.8;;;37.4;;
36833;SDS011;48003;52.084;5.224;2022-12-11T03:08:37;62.9;;;34.6;;
36833;SDS011;48003;52.084;5.224;2022-12-11T03:10:15;65.8;;;36.31;;
36833;SDS011;48003;52.084;5.224;2022-12-11T03:11:54;62.4;;;33.9;;
36833;SDS011;48003;52.084;5.224;2022-12-11T03:15:08;61.4;;;34.5;;
36833;SDS011;48003;52.084;5.224;2022-12-11T03:16:50;62.5;;;35.4;;
36833;SDS011;48003;52.084;5.224;2022-12-11T03:18:35;67.5;;;36.31;;
36833;SDS011;48003;52.084;5.224;2022-12-11T03:20:20;67.8;;;37.5;;
36833;SDS011;48003;52.084;5.224;2022-12-11T03:22:09;67.2;;;36.21;;
36833;SDS011;48003;52.084;5.224;2022-12-11T03:25:38;61.4;;;36.21;;
36833;SDS011;48003;52.084;5.224;2022-12-11T03:27:23;64.5;;;36.81;;
36833;SDS011;48003;52.084;5.224;2022-12-11T03:29:11;67.8;;;38.71;;
36833;SDS011;48003;52.084;5.224;2022-12-11T03:30:54;63.7;;;37.5;;
36833;SDS011;48003;52.084;5.224;2022-12-11T03:32:35;64.6;;;37.21;;
36833;SDS011;48003;52.084;5.224;2022-12-11T03:35:58;64.1;;;37.4;;
36833;SDS011;48003;52.084;5.224;2022-12-11T03:37:40;65.0;;;36.5;;
36833;SDS011;48003;52.084;5.224;2022-12-11T03:39:21;57.0;;;35.5;;
36833;SDS011;48003;52.084;5.224;2022-12-11T03:41:02;57.3;;;34.31;;
36833;SDS011;48003;52.084;5.224;2022-12-11T03:44:26;54.5;;;33.8;;
36833;SDS011;48003;52.084;5.224;2022-12-11T03:46:05;54.0;;;33.21;;
36833;SDS011;48003;52.084;5.224;2022-12-11T03:47:44;53.6;;;33.71;;
36833;SDS011;48003;52.084;5.224;2022-12-11T03:49:23;57.7;;;34.5;;
36833;SDS011;48003;52.084;5.224;2022-12-11T03:52:43;55.9;;;34.6;;
36833;SDS011;48003;52.084;5.224;2022-12-11T03:54:22;55.1;;;34.71;;
36833;SDS011;48003;52.084;5.224;2022-12-11T03:56:00;56.0;;;33.71;;
36833;SDS011;48003;52.084;5.224;2022-12-11T03:57:39;56.9;;;35.21;;
36833;SDS011;48003;52.084;5.224;2022-12-11T04:00:52;50.3;;;31.0;;
36833;SDS011;48003;52.084;5.224;2022-12-11T04:02:28;49.9;;;32.21;;
36833;SDS011;48003;52.084;5.224;2022-12-11T04:04:04;45.8;;;30.1;;
36833;SDS011;48003;52.084;5.224;2022-12-11T04:07:20;49.0;;;30.2;;
36833;SDS011;48003;52.084;5.224;2022-12-11T04:08:56;45.6;;;29.5;;
36833;SDS011;48003;52.084;5.224;2022-12-11T04:10:32;47.8;;;30.1;;
36833;SDS011;48003;52.084;5.224;2022-12-11T04:12:08;46.1;;;29.2;;
36833;SDS011;48003;52.084;5.224;2022-12-11T04:15:22;44.1;;;28.7;;
36833;SDS011;48003;52.084;5.224;2022-12-11T04:16:59;44.1;;;28.7;;
36833;SDS011;48003;52.084;5.224;2022-12-11T04:24:28;46.9;;;30.2;;
36833;SDS011;48003;52.084;5.224;2022-12-11T04:26:05;47.0;;;30.3;;
36833;SDS011;48003;52.084;5.224;2022-12-11T04:27:52;46.7;;;29.9;;
36833;SDS011;48003;52.084;5.224;2022-12-11T04:29:28;49.8;;;31.3;;
36833;SDS011;48003;52.084;5.224;2022-12-11T04:31:04;47.3;;;30.7;;
36833;SDS011;48003;52.084;5.224;2022-12-11T04:34:18;43.6;;;29.7;;
36833;SDS011;48003;52.084;5.224;2022-12-11T04:35:55;46.2;;;30.9;;
36833;SDS011;48003;52.084;5.224;2022-12-11T04:37:33;46.6;;;31.5;;
36833;SDS011;48003;52.084;5.224;2022-12-11T04:40:46;45.2;;;29.0;;
36833;SDS011;48003;52.084;5.224;2022-12-11T04:42:22;42.2;;;28.5;;
36833;SDS011;48003;52.084;5.224;2022-12-11T04:43:58;41.7;;;28.5;;
36833;SDS011;48003;52.084;5.224;2022-12-11T04:47:11;43.6;;;29.2;;
36833;SDS011;48003;52.084;5.224;2022-12-11T04:48:47;43.0;;;28.7;;
36833;SDS011;48003;52.084;5.224;2022-12-11T04:50:24;41.6;;;29.0;;
36833;SDS011;48003;52.084;5.224;2022-12-11T04:52:01;41.7;;;29.2;;
36833;SDS011;48003;52.084;5.224;2022-12-11T04:55:13;41.6;;;28.2;;
36833;SDS011;48003;52.084;5.224;2022-12-11T04:56:50;41.8;;;28.4;;
36833;SDS011;48003;52.084;5.224;2022-12-11T04:58:26;40.71;;;27.2;;
36833;SDS011;48003;52.084;5.224;2022-12-11T05:01:44;43.6;;;27.8;;
36833;SDS011;48003;52.084;5.224;2022-12-11T05:03:21;44.7;;;28.7;;
36833;SDS011;48003;52.084;5.224;2022-12-11T05:04:59;41.5;;;27.5;;
36833;SDS011;48003;52.084;5.224;2022-12-11T05:06:35;41.0;;;26.8;;
36833;SDS011;48003;52.084;5.224;2022-12-11T05:09:47;41.5;;;26.4;;
36833;SDS011;48003;52.084;5.224;2022-12-11T05:11:23;39.71;;;27.0;;
36833;SDS011;48003;52.084;5.224;2022-12-11T05:13:00;39.4;;;27.1;;
36833;SDS011;48003;52.084;5.224;2022-12-11T05:16:14;41.5;;;27.7;;
36833;SDS011;48003;52.084;5.224;2022-12-11T05:17:52;41.8;;;28.2;;
36833;SDS011;48003;52.084;5.224;2022-12-11T05:19:28;39.6;;;26.2;;
36833;SDS011;48003;52.084;5.224;2022-12-11T05:22:45;39.5;;;27.5;;
36833;SDS011;48003;52.084;5.224;2022-12-11T05:25:59;38.31;;;26.1;;
36833;SDS011;48003;52.084;5.224;2022-12-11T05:27:37;41.5;;;27.0;;
36833;SDS011;48003;52.084;5.224;2022-12-11T05:30:53;39.71;;;26.5;;
36833;SDS011;48003;52.084;5.224;2022-12-11T05:32:31;38.1;;;25.6;;
36833;SDS011;48003;52.084;5.224;2022-12-11T05:34:07;39.5;;;26.2;;
36833;SDS011;48003;52.084;5.224;2022-12-11T05:37:22;41.6;;;26.9;;
36833;SDS011;48003;52.084;5.224;2022-12-11T05:38:59;41.6;;;26.8;;
36833;SDS011;48003;52.084;5.224;2022-12-11T05:40:37;43.8;;;27.1;;
36833;SDS011;48003;52.084;5.224;2022-12-11T05:42:13;42.3;;;26.8;;
36833;SDS011;48003;52.084;5.224;2022-12-11T05:45:26;40.21;;;26.7;;
36833;SDS011;48003;52.084;5.224;2022-12-11T05:47:02;38.9;;;25.9;;
36833;SDS011;48003;52.084;5.224;2022-12-11T05:48:39;40.81;;;27.0;;
36833;SDS011;48003;52.084;5.224;2022-12-11T05:51:53;43.6;;;28.2;;
36833;SDS011;48003;52.084;5.224;2022-12-11T05:53:29;41.0;;;26.4;;
36833;SDS011;48003;52.084;5.224;2022-12-11T05:55:08;44.6;;;27.8;;
36833;SDS011;48003;52.084;5.224;2022-12-11T05:56:44;42.9;;;27.9;;
36833;SDS011;48003;52.084;5.224;2022-12-11T05:59:58;41.8;;;28.4;;
36833;SDS011;48003;52.084;5.224;2022-12-11T06:01:35;45.7;;;28.2;;
36833;SDS011;48003;52.084;5.224;2022-12-11T06:03:13;44.8;;;28.7;;
36833;SDS011;48003;52.084;5.224;2022-12-11T06:06:27;46.0;;;28.8;;
36833;SDS011;48003;52.084;5.224;2022-12-11T06:08:04;45.8;;;29.3;;
36833;SDS011;48003;52.084;5.224;2022-12-11T06:09:41;44.9;;;28.3;;
36833;SDS011;48003;52.084;5.224;2022-12-11T06:12:54;45.4;;;28.7;;
36833;SDS011;48003;52.084;5.224;2022-12-11T06:14:31;45.4;;;28.7;;
36833;SDS011;48003;52.084;5.224;2022-12-11T06:16:07;45.9;;;29.2;;
36833;SDS011;48003;52.084;5.224;2022-12-11T06:17:45;44.4;;;28.1;;
36833;SDS011;48003;52.084;5.224;2022-12-11T06:20:58;42.7;;;27.9;;
36833;SDS011;48003;52.084;5.224;2022-12-11T06:22:35;42.6;;;27.6;;
36833;SDS011;48003;52.084;5.224;2022-12-11T06:24:11;46.7;;;28.1;;
36833;SDS011;48003;52.084;5.224;2022-12-11T06:27:23;41.8;;;28.1;;
36833;SDS011;48003;52.084;5.224;2022-12-11T06:28:59;46.6;;;29.5;;
36833;SDS011;48003;52.084;5.224;2022-12-11T06:30:37;45.9;;;28.4;;
36833;SDS011;48003;52.084;5.224;2022-12-11T06:33:50;45.0;;;29.2;;
36833;SDS011;48003;52.084;5.224;2022-12-11T06:35:26;43.6;;;28.9;;
36833;SDS011;48003;52.084;5.224;2022-12-11T06:37:02;46.8;;;29.6;;
36833;SDS011;48003;52.084;5.224;2022-12-11T06:38:38;45.4;;;29.5;;
36833;SDS011;48003;52.084;5.224;2022-12-11T06:41:53;47.6;;;30.1;;
36833;SDS011;48003;52.084;5.224;2022-12-11T06:43:29;48.9;;;30.8;;
36833;SDS011;48003;52.084;5.224;2022-12-11T06:45:07;47.0;;;30.3;;
36833;SDS011;48003;52.084;5.224;2022-12-11T06:48:20;49.4;;;30.8;;
36833;SDS011;48003;52.084;5.224;2022-12-11T06:49:56;49.8;;;31.5;;
36833;SDS011;48003;52.084;5.224;2022-12-11T06:51:33;51.1;;;32.1;;
36833;SDS011;48003;52.084;5.224;2022-12-11T06:54:47;50.8;;;31.8;;
36833;SDS011;48003;52.084;5.224;2022-12-11T06:56:24;50.7;;;30.5;;
36833;SDS011;48003;52.084;5.224;2022-12-11T06:58:00;52.2;;;32.3;;
36833;SDS011;48003;52.084;5.224;2022-12-11T06:59:37;49.1;;;31.0;;
36833;SDS011;48003;52.084;5.224;2022-12-11T07:02:52;49.0;;;31.1;;
36833;SDS011;48003;52.084;5.224;2022-12-11T07:04:29;52.5;;;31.4;;
36833;SDS011;48003;52.084;5.224;2022-12-11T07:06:06;51.7;;;30.9;;
36833;SDS011;48003;52.084;5.224;2022-12-11T07:09:19;51.2;;;32.0;;
36833;SDS011;48003;52.084;5.224;2022-12-11T07:11:00;51.2;;;32.0;;
36833;SDS011;48003;52.084;5.224;2022-12-11T07:12:38;51.4;;;31.0;;
36833;SDS011;48003;52.084;5.224;2022-12-11T07:14:14;48.0;;;30.1;;
36833;SDS011;48003;52.084;5.224;2022-12-11T07:17:27;50.4;;;30.4;;
36833;SDS011;48003;52.084;5.224;2022-12-11T07:19:04;51.7;;;31.1;;
36833;SDS011;48003;52.084;5.224;2022-12-11T07:20:40;45.6;;;29.2;;
36833;SDS011;48003;52.084;5.224;2022-12-11T07:23:52;46.3;;;28.8;;
36833;SDS011;48003;52.084;5.224;2022-12-11T07:25:29;45.8;;;28.7;;
36833;SDS011;48003;52.084;5.224;2022-12-11T07:27:05;45.9;;;29.2;;
36833;SDS011;48003;52.084;5.224;2022-12-11T07:30:18;46.9;;;29.4;;
36833;SDS011;48003;52.084;5.224;2022-12-11T07:31:55;42.2;;;27.9;;
36833;SDS011;48003;52.084;5.224;2022-12-11T07:33:31;42.7;;;27.7;;
36833;SDS011;48003;52.084;5.224;2022-12-11T07:35:07;46.2;;;28.9;;
36833;SDS011;48003;52.084;5.224;2022-12-11T07:38:20;47.1;;;29.3;;
36833;SDS011;48003;52.084;5.224;2022-12-11T07:39:56;45.1;;;28.6;;
36833;SDS011;48003;52.084;5.224;2022-12-11T07:41:34;43.3;;;29.1;;
36833;SDS011;48003;52.084;5.224;2022-12-11T07:44:46;43.3;;;29.1;;
36833;SDS011;48003;52.084;5.224;2022-12-11T07:46:24;43.5;;;30.0;;
36833;SDS011;48003;52.084;5.224;2022-12-11T07:48:03;43.8;;;29.2;;
36833;SDS011;48003;52.084;5.224;2022-12-11T07:51:17;44.7;;;30.9;;
36833;SDS011;48003;52.084;5.224;2022-12-11T07:52:55;45.0;;;29.7;;
36833;SDS011;48003;52.084;5.224;2022-12-11T07:54:31;44.1;;;30.6;;
36833;SDS011;48003;52.084;5.224;2022-12-11T07:56:08;44.4;;;29.8;;
36833;SDS011;48003;52.084;5.224;2022-12-11T07:59:20;46.6;;;32.21;;
36833;SDS011;48003;52.084;5.224;2022-12-11T08:00:57;47.0;;;31.6;;
36833;SDS011;48003;52.084;5.224;2022-12-11T08:02:33;45.6;;;30.8;;
36833;SDS011;48003;52.084;5.224;2022-12-11T08:05:47;48.1;;;31.2;;
36833;SDS011;48003;52.084;5.224;2022-12-11T08:07:24;45.4;;;31.3;;
36833;SDS011;48003;52.084;5.224;2022-12-11T08:09:01;41.3;;;29.6;;
36833;SDS011;48003;52.084;5.224;2022-12-11T08:10:39;40.4;;;28.1;;
36833;SDS011;48003;52.084;5.224;2022-12-11T08:13:52;46.8;;;30.1;;
36833;SDS011;48003;52.084;5.224;2022-12-11T08:15:29;42.8;;;29.5;;
36833;SDS011;48003;52.084;5.224;2022-12-11T08:17:05;43.5;;;29.1;;
36833;SDS011;48003;52.084;5.224;2022-12-11T08:20:19;38.5;;;26.0;;
36833;SDS011;48003;52.084;5.224;2022-12-11T08:21:56;39.21;;;26.6;;
36833;SDS011;48003;52.084;5.224;2022-12-11T08:23:32;37.71;;;26.7;;
36833;SDS011;48003;52.084;5.224;2022-12-11T08:28:23;38.21;;;26.1;;
36833;SDS011;48003;52.084;5.224;2022-12-11T08:30:00;38.81;;;26.2;;
36833;SDS011;48003;52.084;5.224;2022-12-11T08:31:36;40.1;;;27.8;;
36833;SDS011;48003;52.084;5.224;2022-12-11T08:34:50;38.4;;;27.1;;
36833;SDS011;48003;52.084;5.224;2022-12-11T08:36:26;40.0;;;27.7;;
36833;SDS011;48003;52.084;5.224;2022-12-11T08:38:03;39.1;;;27.4;;
36833;SDS011;48003;52.084;5.224;2022-12-11T08:41:17;38.9;;;27.8;;
36833;SDS011;48003;52.084;5.224;2022-12-11T08:42:55;37.9;;;26.9;;
36833;SDS011;48003;52.084;5.224;2022-12-11T08:44:31;38.5;;;27.9;;
36833;SDS011;48003;52.084;5.224;2022-12-11T08:47:44;39.9;;;27.4;;
36833;SDS011;48003;52.084;5.224;2022-12-11T08:49:20;43.5;;;29.8;;
36833;SDS011;48003;52.084;5.224;2022-12-11T08:50:58;41.4;;;28.8;;
36833;SDS011;48003;52.084;5.224;2022-12-11T08:52:35;43.3;;;29.1;;
36833;SDS011;48003;52.084;5.224;2022-12-11T08:55:47;44.4;;;30.9;;
36833;SDS011;48003;52.084;5.224;2022-12-11T08:57:24;44.4;;;30.5;;
36833;SDS011;48003;52.084;5.224;2022-12-11T08:59:00;47.1;;;31.7;;
36833;SDS011;48003;52.084;5.224;2022-12-11T09:02:13;46.0;;;31.2;;
36833;SDS011;48003;52.084;5.224;2022-12-11T09:03:50;44.6;;;30.2;;
36833;SDS011;48003;52.084;5.224;2022-12-11T09:05:28;47.0;;;31.3;;
36833;SDS011;48003;52.084;5.224;2022-12-11T09:08:40;45.8;;;30.9;;
36833;SDS011;48003;52.084;5.224;2022-12-11T09:10:19;46.1;;;31.1;;
36833;SDS011;48003;52.084;5.224;2022-12-11T09:11:56;44.5;;;29.6;;
36833;SDS011;48003;52.084;5.224;2022-12-11T09:13:32;45.4;;;29.9;;
36833;SDS011;48003;52.084;5.224;2022-12-11T09:16:46;41.4;;;28.9;;
36833;SDS011;48003;52.084;5.224;2022-12-11T09:18:22;43.1;;;29.6;;
36833;SDS011;48003;52.084;5.224;2022-12-11T09:19:59;43.6;;;29.7;;
36833;SDS011;48003;52.084;5.224;2022-12-11T09:23:11;43.5;;;29.0;;
36833;SDS011;48003;52.084;5.224;2022-12-11T09:24:47;45.0;;;30.0;;
36833;SDS011;48003;52.084;5.224;2022-12-11T09:26:24;40.71;;;29.0;;
36833;SDS011;48003;52.084;5.224;2022-12-11T09:28:01;42.7;;;28.9;;
36833;SDS011;48003;52.084;5.224;2022-12-11T09:31:15;41.9;;;29.1;;
36833;SDS011;48003;52.084;5.224;2022-12-11T09:32:54;42.1;;;28.7;;
36833;SDS011;48003;52.084;5.224;2022-12-11T09:34:30;46.7;;;29.5;;
36833;SDS011;48003;52.084;5.224;2022-12-11T09:39:20;42.3;;;28.8;;
36833;SDS011;48003;52.084;5.224;2022-12-11T09:40:56;41.9;;;28.8;;
36833;SDS011;48003;52.084;5.224;2022-12-11T09:44:29;41.9;;;28.8;;
36833;SDS011;48003;52.084;5.224;2022-12-11T09:46:15;43.2;;;30.2;;
36833;SDS011;48003;52.084;5.224;2022-12-11T09:47:54;40.31;;;28.3;;
36833;SDS011;48003;52.084;5.224;2022-12-11T09:49:32;41.5;;;28.9;;
36833;SDS011;48003;52.084;5.224;2022-12-11T09:51:16;41.4;;;29.3;;
36833;SDS011;48003;52.084;5.224;2022-12-11T09:54:52;41.4;;;28.2;;
36833;SDS011;48003;52.084;5.224;2022-12-11T09:56:33;40.0;;;27.7;;
36833;SDS011;48003;52.084;5.224;2022-12-11T09:58:18;41.9;;;28.4;;
36833;SDS011;48003;52.084;5.224;2022-12-11T10:00:05;39.9;;;28.7;;
36833;SDS011;48003;52.084;5.224;2022-12-11T10:01:51;37.81;;;26.9;;
36833;SDS011;48003;52.084;5.224;2022-12-11T10:05:32;39.6;;;27.1;;
36833;SDS011;48003;52.084;5.224;2022-12-11T10:07:17;40.21;;;27.5;;
36833;SDS011;48003;52.084;5.224;2022-12-11T10:09:07;38.4;;;26.8;;
36833;SDS011;48003;52.084;5.224;2022-12-11T10:10:55;41.6;;;27.5;;
36833;SDS011;48003;52.084;5.224;2022-12-11T10:12:42;39.71;;;27.3;;
36833;SDS011;48003;52.084;5.224;2022-12-11T10:14:30;39.71;;;26.7;;
36833;SDS011;48003;52.084;5.224;2022-12-11T10:16:19;37.1;;;26.2;;
36833;SDS011;48003;52.084;5.224;2022-12-11T10:19:49;39.31;;;26.5;;
36833;SDS011;48003;52.084;5.224;2022-12-11T10:21:26;36.1;;;25.0;;
36833;SDS011;48003;52.084;5.224;2022-12-11T10:23:15;38.21;;;24.9;;
36833;SDS011;48003;52.084;5.224;2022-12-11T10:24:56;36.81;;;24.4;;
36833;SDS011;48003;52.084;5.224;2022-12-11T10:28:14;36.71;;;24.7;;
36833;SDS011;48003;52.084;5.224;2022-12-11T10:29:54;36.21;;;24.8;;
36833;SDS011;48003;52.084;5.224;2022-12-11T10:31:42;36.1;;;23.6;;
36833;SDS011;48003;52.084;5.224;2022-12-11T10:33:26;35.31;;;23.4;;
36833;SDS011;48003;52.084;5.224;2022-12-11T10:35:14;37.81;;;24.6;;
36833;SDS011;48003;52.084;5.224;2022-12-11T10:38:32;38.4;;;24.6;;
36833;SDS011;48003;52.084;5.224;2022-12-11T10:40:15;38.4;;;24.6;;
36833;SDS011;48003;52.084;5.224;2022-12-11T10:41:55;34.5;;;22.2;;
36833;SDS011;48003;52.084;5.224;2022-12-11T10:47:00;34.6;;;22.9;;
36833;SDS011;48003;52.084;5.224;2022-12-11T10:48:43;34.9;;;23.3;;
36833;SDS011;48003;52.084;5.224;2022-12-11T10:50:21;36.1;;;23.6;;
36833;SDS011;48003;52.084;5.224;2022-12-11T10:52:00;33.4;;;22.9;;
36833;SDS011;48003;52.084;5.224;2022-12-11T10:55:26;32.8;;;22.5;;
36833;SDS011;48003;52.084;5.224;2022-12-11T10:57:06;32.1;;;22.4;;
36833;SDS011;48003;52.084;5.224;2022-12-11T10:58:46;32.5;;;22.2;;
36833;SDS011;48003;52.084;5.224;2022-12-11T11:00:27;33.4;;;22.1;;
36833;SDS011;48003;52.084;5.224;2022-12-11T11:03:57;33.3;;;22.1;;
36833;SDS011;48003;52.084;5.224;2022-12-11T11:05:37;32.1;;;21.3;;
36833;SDS011;48003;52.084;5.224;2022-12-11T11:07:17;32.0;;;22.0;;
36833;SDS011;48003;52.084;5.224;2022-12-11T11:08:57;35.4;;;22.8;;
36833;SDS011;48003;52.084;5.224;2022-12-11T11:10:35;31.9;;;22.1;;
36833;SDS011;48003;52.084;5.224;2022-12-11T11:14:09;34.9;;;23.0;;
36833;SDS011;48003;52.084;5.224;2022-12-11T11:15:57;32.6;;;21.4;;
36833;SDS011;48003;52.084;5.224;2022-12-11T11:17:39;35.31;;;22.2;;
36833;SDS011;48003;52.084;5.224;2022-12-11T11:19:20;33.9;;;21.8;;
36833;SDS011;48003;52.084;5.224;2022-12-11T11:22:37;30.5;;;20.8;;
36833;SDS011;48003;52.084;5.224;2022-12-11T11:24:19;30.5;;;20.9;;
36833;SDS011;48003;52.084;5.224;2022-12-11T11:26:05;33.9;;;21.4;;
36833;SDS011;48003;52.084;5.224;2022-12-11T11:27:43;29.6;;;20.11;;
36833;SDS011;48003;52.084;5.224;2022-12-11T11:29:26;30.3;;;19.91;;
36833;SDS011;48003;52.084;5.224;2022-12-11T11:32:46;29.3;;;19.61;;
36833;SDS011;48003;52.084;5.224;2022-12-11T11:34:29;30.2;;;20.41;;
36833;SDS011;48003;52.084;5.224;2022-12-11T11:36:06;29.1;;;19.61;;
36833;SDS011;48003;52.084;5.224;2022-12-11T11:38:03;30.3;;;19.7;;
36833;SDS011;48003;52.084;5.224;2022-12-11T11:39:51;33.21;;;20.8;;
36833;SDS011;48003;52.084;5.224;2022-12-11T11:43:25;30.6;;;19.91;;
36833;SDS011;48003;52.084;5.224;2022-12-11T11:45:10;29.4;;;19.8;;
36833;SDS011;48003;52.084;5.224;2022-12-11T11:46:53;29.4;;;18.91;;
36833;SDS011;48003;52.084;5.224;2022-12-11T11:48:37;30.2;;;19.7;;
36833;SDS011;48003;52.084;5.224;2022-12-11T11:50:21;29.0;;;19.2;;
36833;SDS011;48003;52.084;5.224;2022-12-11T11:53:50;29.9;;;19.2;;
36833;SDS011;48003;52.084;5.224;2022-12-11T11:55:35;29.6;;;19.8;;
36833;SDS011;48003;52.084;5.224;2022-12-11T11:57:21;30.0;;;20.41;;
36833;SDS011;48003;52.084;5.224;2022-12-11T11:59:20;31.0;;;20.2;;
36833;SDS011;48003;52.084;5.224;2022-12-11T12:01:01;31.7;;;20.7;;
36833;SDS011;48003;52.084;5.224;2022-12-11T12:04:15;35.31;;;20.8;;
36833;SDS011;48003;52.084;5.224;2022-12-11T12:05:53;34.71;;;21.2;;
36833;SDS011;48003;52.084;5.224;2022-12-11T12:07:36;33.21;;;21.2;;
36833;SDS011;48003;52.084;5.224;2022-12-11T12:09:23;33.0;;;20.9;;
36833;SDS011;48003;52.084;5.224;2022-12-11T12:11:16;34.5;;;21.0;;
36833;SDS011;48003;52.084;5.224;2022-12-11T12:14:56;36.31;;;21.3;;
36833;SDS011;48003;52.084;5.224;2022-12-11T12:16:52;33.3;;;20.6;;
36833;SDS011;48003;52.084;5.224;2022-12-11T12:18:40;32.9;;;21.0;;
36833;SDS011;48003;52.084;5.224;2022-12-11T12:20:29;34.4;;;20.9;;
36833;SDS011;48003;52.084;5.224;2022-12-11T12:22:18;33.1;;;20.9;;
36833;SDS011;48003;52.084;5.224;2022-12-11T12:24:09;34.31;;;21.4;;
36833;SDS011;48003;52.084;5.224;2022-12-11T12:25:57;34.6;;;21.7;;
36833;SDS011;48003;52.084;5.224;2022-12-11T12:29:27;34.1;;;21.6;;
36833;SDS011;48003;52.084;5.224;2022-12-11T12:31:26;35.6;;;21.5;;
36833;SDS011;48003;52.084;5.224;2022-12-11T12:33:23;38.0;;;22.5;;
36833;SDS011;48003;52.084;5.224;2022-12-11T12:35:14;35.71;;;21.5;;
36833;SDS011;48003;52.084;5.224;2022-12-11T12:37:10;36.6;;;22.2;;
36833;SDS011;48003;52.084;5.224;2022-12-11T12:40:39;36.9;;;22.3;;
36833;SDS011;48003;52.084;5.224;2022-12-11T12:44:19;40.71;;;22.8;;
36833;SDS011;48003;52.084;5.224;2022-12-11T12:46:01;37.81;;;22.9;;
36833;SDS011;48003;52.084;5.224;2022-12-11T12:47:49;38.4;;;22.7;;
36833;SDS011;48003;52.084;5.224;2022-12-11T12:49:29;39.9;;;23.1;;
36833;SDS011;48003;52.084;5.224;2022-12-11T12:51:11;39.1;;;23.5;;